Time;durP1;ratioP1;P1;durP2;ratioP2;P2;SDS_P1;SDS_P2;PMS_P1;PMS_P2;Temp;Humidity;BMP_temperature;BMP_pressure;BME280_temperature;BME280_humidity;BME280_pressure;Samples;Min_cycle;Max_cycle;Signal;HPM_P1;HPM_P2
2022/06/29 00:00:19;;;;;;;0.00;0.00;;;22.50;83.50;;;;;;4995029;28;20493;-73
2022/06/29 00:02:46;;;;;;;0.00;0.00;;;22.50;83.40;;;;;;4994795;28;20080;-74
2022/06/29 00:05:14;;;;;;;0.10;0.00;;;22.60;84.40;;;;;;4995123;28;20409;-71
2022/06/29 00:07:42;;;;;;;0.20;0.10;;;22.60;83.00;;;;;;4994848;28;20030;-72
2022/06/29 00:10:10;;;;;;;0.00;0.00;;;22.60;83.50;;;;;;4994964;28;20034;-72
2022/06/29 00:12:36;;;;;;;0.00;0.00;;;22.60;83.30;;;;;;4993099;28;20049;-73
2022/06/29 00:15:03;;;;;;;1.35;0.70;;;22.50;83.80;;;;;;4994817;28;20037;-72
2022/06/29 00:17:31;;;;;;;1.20;0.93;;;22.60;83.30;;;;;;4993522;28;20042;-72
2022/06/29 00:20:03;;;;;;;0.25;0.22;;;22.60;83.70;;;;;;4993464;28;20027;-73
2022/06/29 00:22:30;;;;;;;0.00;0.00;;;22.60;84.00;;;;;;4992409;28;20034;-73
2022/06/29 00:24:56;;;;;;;0.00;0.00;;;22.60;84.00;;;;;;4976949;28;20045;-73
2022/06/29 00:27:23;;;;;;;0.00;0.00;;;22.60;84.20;;;;;;4993300;28;20492;-73
2022/06/29 00:29:49;;;;;;;0.00;0.00;;;22.60;84.50;;;;;;4993334;28;20034;-73
2022/06/29 00:32:14;;;;;;;0.10;0.10;;;22.50;84.80;;;;;;4994267;28;20113;-73
2022/06/29 00:34:41;;;;;;;0.00;0.00;;;22.50;85.00;;;;;;4993281;28;20041;-73
2022/06/29 00:37:07;;;;;;;0.05;0.00;;;22.40;85.30;;;;;;4976766;28;20027;-73
2022/06/29 00:39:33;;;;;;;0.10;0.10;;;22.30;86.10;;;;;;4976937;28;20030;-71
2022/06/29 00:41:59;;;;;;;2.08;0.52;;;22.30;85.30;;;;;;4992918;28;20104;-72
2022/06/29 00:44:26;;;;;;;0.47;0.47;;;22.40;85.40;;;;;;4993975;28;20532;-72
2022/06/29 00:46:57;;;;;;;0.00;0.00;;;22.20;86.40;;;;;;4992899;28;20034;-72
2022/06/29 00:49:27;;;;;;;0.00;0.00;;;22.20;86.10;;;;;;4993137;28;20113;-72
2022/06/29 00:52:07;;;;;;;0.00;0.00;;;22.20;86.30;;;;;;4993031;28;20030;-72
2022/06/29 00:54:40;;;;;;;0.13;0.13;;;22.20;86.80;;;;;;4994480;28;20418;-73
2022/06/29 00:57:29;;;;;;;0.10;0.10;;;22.20;87.20;;;;;;4992653;28;20026;-73
2022/06/29 00:59:59;;;;;;;0.10;0.10;;;22.20;86.90;;;;;;4994050;28;20118;-72
2022/06/29 01:02:33;;;;;;;0.05;0.05;;;22.30;86.80;;;;;;4992249;28;20470;-72
2022/06/29 01:05:00;;;;;;;3.63;1.25;;;22.20;86.60;;;;;;4989847;28;20106;-72
2022/06/29 01:07:29;;;;;;;0.05;0.00;;;21.90;87.60;;;;;;4989329;28;20029;-72
2022/06/29 01:09:55;;;;;;;0.20;0.20;;;21.60;88.50;;;;;;4992261;28;20108;-72
2022/06/29 01:12:22;;;;;;;0.00;0.00;;;21.60;89.20;;;;;;4993318;28;20034;-72
2022/06/29 01:14:50;;;;;;;0.15;0.15;;;21.50;90.20;;;;;;4993729;28;20033;-72
2022/06/29 01:17:16;;;;;;;0.00;0.00;;;21.60;90.30;;;;;;4993314;28;20062;-71
2022/06/29 01:19:43;;;;;;;0.00;0.00;;;21.60;90.40;;;;;;4993400;28;20033;-72
2022/06/29 01:22:17;;;;;;;2.45;0.30;;;21.50;90.50;;;;;;4993452;28;20494;-72
2022/06/29 01:24:45;;;;;;;0.00;0.00;;;21.60;90.70;;;;;;4992425;28;20042;-72
2022/06/29 01:27:13;;;;;;;0.25;0.25;;;21.50;91.00;;;;;;4992044;28;20608;-72
2022/06/29 01:29:39;;;;;;;0.60;0.60;;;21.60;90.90;;;;;;4992102;28;20037;-72
2022/06/29 01:32:06;;;;;;;0.35;0.35;;;21.70;91.10;;;;;;4991997;28;20092;-72
2022/06/29 01:34:33;;;;;;;0.00;0.00;;;21.70;90.80;;;;;;4993481;28;20041;-72
2022/06/29 01:37:00;;;;;;;0.73;0.55;;;21.70;90.60;;;;;;4991776;28;20482;-72
2022/06/29 01:39:27;;;;;;;0.20;0.20;;;21.80;90.00;;;;;;4993314;28;20150;-72
2022/06/29 01:41:53;;;;;;;0.15;0.10;;;21.90;89.80;;;;;;4991881;28;20027;-72
2022/06/29 01:44:19;;;;;;;0.05;0.05;;;21.80;89.90;;;;;;4992741;28;20537;-71
2022/06/29 01:46:45;;;;;;;0.20;0.05;;;21.80;90.20;;;;;;4993041;28;20089;-72
2022/06/29 01:49:11;;;;;;;0.05;0.05;;;21.80;90.10;;;;;;4992952;28;20038;-72
2022/06/29 01:51:37;;;;;;;0.00;0.00;;;21.80;90.20;;;;;;4993325;28;20034;-72
2022/06/29 01:54:03;;;;;;;4.95;0.63;;;21.80;90.50;;;;;;4992882;28;20118;-72
2022/06/29 01:56:28;;;;;;;0.10;0.10;;;21.80;90.60;;;;;;4992895;28;20022;-72
2022/06/29 01:58:54;;;;;;;0.03;0.00;;;21.80;90.70;;;;;;4992646;28;20450;-72
2022/06/29 02:01:20;;;;;;;0.10;0.10;;;21.80;90.80;;;;;;4975172;28;20053;-72
2022/06/29 02:03:46;;;;;;;0.20;0.10;;;21.80;90.20;;;;;;4992322;28;20057;-72
2022/06/29 02:06:15;;;;;;;0.00;0.00;;;21.80;89.90;;;;;;4992812;28;20494;-72
2022/06/29 02:08:41;;;;;;;0.20;0.10;;;21.90;90.00;;;;;;4992539;28;20397;-72
2022/06/29 02:11:06;;;;;;;0.10;0.10;;;21.90;89.90;;;;;;4992766;28;20041;-72
2022/06/29 02:13:32;;;;;;;0.08;0.00;;;21.90;90.00;;;;;;4992291;28;20738;-73
2022/06/29 02:15:58;;;;;;;0.00;0.00;;;21.80;90.10;;;;;;4992786;28;20049;-72
2022/06/29 02:18:24;;;;;;;0.00;0.00;;;21.80;90.30;;;;;;4992435;28;20030;-72
2022/06/29 02:20:49;;;;;;;0.00;0.00;;;21.80;90.10;;;;;;4992720;28;20053;-72
2022/06/29 02:23:15;;;;;;;0.08;0.08;;;21.70;90.40;;;;;;4990949;28;20030;-72
2022/06/29 02:25:41;;;;;;;0.05;0.05;;;21.70;90.70;;;;;;4992392;28;20026;-72
2022/06/29 02:28:07;;;;;;;1.77;0.30;;;21.80;90.40;;;;;;4992288;28;20037;-71
2022/06/29 02:36:02;;;;;;;0.10;0.10;;;21.80;90.40;;;;;;4992557;28;20030;-72
2022/06/29 02:38:28;;;;;;;0.00;0.00;;;21.80;90.80;;;;;;4992068;28;20031;-72
2022/06/29 02:40:54;;;;;;;0.20;0.17;;;21.90;90.60;;;;;;4992259;28;20129;-72
2022/06/29 02:43:20;;;;;;;0.10;0.10;;;21.90;90.40;;;;;;4991658;28;20466;-72
2022/06/29 02:45:46;;;;;;;0.10;0.10;;;21.90;90.80;;;;;;4991769;28;20034;-72
2022/06/29 02:48:11;;;;;;;0.17;0.17;;;21.90;90.80;;;;;;4990583;28;20034;-73
2022/06/29 02:50:37;;;;;;;7.30;0.35;;;21.80;91.10;;;;;;4992143;28;20056;-73
2022/06/29 02:53:03;;;;;;;0.70;0.70;;;21.80;91.40;;;;;;4991805;28;20031;-73
2022/06/29 02:55:29;;;;;;;0.00;0.00;;;21.80;91.20;;;;;;4991994;28;20026;-72
2022/06/29 02:57:54;;;;;;;0.13;0.13;;;21.80;91.30;;;;;;4992142;28;20042;-72
2022/06/29 03:00:20;;;;;;;0.55;0.25;;;21.80;91.40;;;;;;5007435;28;20038;-72
2022/06/29 03:02:46;;;;;;;0.00;0.00;;;21.70;91.50;;;;;;4991186;28;20026;-72
2022/06/29 03:05:11;;;;;;;0.00;0.00;;;21.70;91.90;;;;;;4992074;28;20088;-72
2022/06/29 03:07:37;;;;;;;0.10;0.10;;;21.70;91.80;;;;;;4991743;28;20030;-72
2022/06/29 03:10:04;;;;;;;0.00;0.00;;;21.70;91.80;;;;;;4991824;28;20419;-72
2022/06/29 03:12:29;;;;;;;0.15;0.15;;;21.70;92.00;;;;;;4991369;28;20769;-72
2022/06/29 03:14:55;;;;;;;0.30;0.30;;;21.60;92.00;;;;;;4991907;28;20042;-72
2022/06/29 03:17:21;;;;;;;0.08;0.08;;;21.60;92.10;;;;;;4991388;28;20034;-72
2022/06/29 03:19:47;;;;;;;0.00;0.00;;;21.60;92.30;;;;;;4991627;28;20489;-72
2022/06/29 03:22:12;;;;;;;0.00;0.00;;;21.60;92.30;;;;;;4991471;28;20069;-71
2022/06/29 03:24:39;;;;;;;0.95;0.47;;;21.50;92.00;;;;;;4990382;28;20030;-72
2022/06/29 03:27:05;;;;;;;0.00;0.00;;;21.50;91.90;;;;;;4991938;28;20026;-72
2022/06/29 03:29:31;;;;;;;0.00;0.00;;;21.50;92.10;;;;;;4991660;28;20026;-72
2022/06/29 03:31:57;;;;;;;0.00;0.00;;;21.60;92.10;;;;;;4990370;28;20113;-72
2022/06/29 03:34:23;;;;;;;0.47;0.47;;;21.60;92.00;;;;;;4990171;28;20038;-72
2022/06/29 03:36:48;;;;;;;0.00;0.00;;;21.60;91.90;;;;;;4989986;28;20027;-71
2022/06/29 03:39:14;;;;;;;0.73;0.20;;;21.70;91.90;;;;;;4991332;28;20034;-71
2022/06/29 03:41:40;;;;;;;0.00;0.00;;;21.60;92.10;;;;;;4991519;28;20031;-71
2022/06/29 03:44:06;;;;;;;0.30;0.28;;;21.50;92.30;;;;;;4989783;28;20026;-71
2022/06/29 03:46:31;;;;;;;0.00;0.00;;;21.40;92.60;;;;;;4991360;28;20065;-71
2022/06/29 03:48:57;;;;;;;0.52;0.52;;;21.40;92.90;;;;;;5025247;23;20408;-78
2022/06/29 03:51:23;;;;;;;0.55;0.47;;;21.50;93.00;;;;;;5021474;28;20049;-78
2022/06/29 03:53:48;;;;;;;0.30;0.20;;;21.50;92.70;;;;;;5014404;28;20475;-73
2022/06/29 03:56:14;;;;;;;1.55;0.85;;;21.40;92.70;;;;;;5009784;28;20393;-74
2022/06/29 03:58:40;;;;;;;0.20;0.20;;;21.40;92.80;;;;;;5013363;28;20030;-72
2022/06/29 04:01:06;;;;;;;0.10;0.10;;;21.30;92.90;;;;;;5014048;28;20022;-72
2022/06/29 04:03:32;;;;;;;0.00;0.00;;;21.30;93.10;;;;;;5012437;28;20026;-73
2022/06/29 04:05:58;;;;;;;0.05;0.05;;;21.40;92.90;;;;;;5024330;28;20025;-72
2022/06/29 04:08:24;;;;;;;1.38;0.60;;;21.30;93.00;;;;;;4998857;28;20124;-72
2022/06/29 04:10:50;;;;;;;0.00;0.00;;;21.30;92.90;;;;;;5028353;28;20488;-73
2022/06/29 04:13:15;;;;;;;0.20;0.10;;;21.20;92.80;;;;;;5023278;28;20087;-73
2022/06/29 04:15:41;;;;;;;0.00;0.00;;;21.30;93.20;;;;;;5022842;28;20061;-72
2022/06/29 04:18:07;;;;;;;0.00;0.00;;;21.30;93.50;;;;;;5031149;28;20033;-72
2022/06/29 04:23:18;;;;;;;0.20;0.10;;;21.30;93.30;;;;;;5032763;28;20060;-72
2022/06/29 04:25:43;;;;;;;0.00;0.00;;;21.30;93.40;;;;;;5031979;28;20061;-72
2022/06/29 04:28:09;;;;;;;0.00;0.00;;;21.30;93.90;;;;;;5016580;28;20033;-74
2022/06/29 04:30:35;;;;;;;0.20;0.20;;;21.20;93.80;;;;;;5013860;28;20065;-73
2022/06/29 04:33:01;;;;;;;0.20;0.20;;;21.20;93.60;;;;;;5011975;28;20050;-73
2022/06/29 04:35:26;;;;;;;0.00;0.00;;;21.20;93.60;;;;;;5013485;28;20227;-74
2022/06/29 04:37:52;;;;;;;0.13;0.13;;;21.30;93.60;;;;;;5012118;28;20026;-74
2022/06/29 04:40:18;;;;;;;0.00;0.00;;;21.30;93.80;;;;;;5012867;28;20029;-76
2022/06/29 04:42:44;;;;;;;0.57;0.45;;;21.30;93.80;;;;;;5011983;28;20034;-75
2022/06/29 04:46:19;;;;;;;0.25;0.20;;;21.30;93.80;;;;;;5013506;28;20091;-63
2022/06/29 04:48:01;;;;;;;0.10;0.10;;;21.40;93.80;;;;;;5012844;28;20030;-63
2022/06/29 04:50:27;;;;;;;0.32;0.30;;;21.40;93.60;;;;;;5013253;28;20037;-63
2022/06/29 04:52:54;;;;;;;0.05;0.03;;;21.50;93.70;;;;;;5012027;28;20065;-62
2022/06/29 04:55:20;;;;;;;0.10;0.10;;;21.40;93.80;;;;;;5012196;28;20129;-61
2022/06/29 04:57:46;;;;;;;0.13;0.13;;;21.40;93.80;;;;;;5011809;28;20177;-63
2022/06/29 05:00:12;;;;;;;0.10;0.10;;;21.40;93.70;;;;;;5012707;28;20045;-63
2022/06/29 05:02:38;;;;;;;0.10;0.10;;;21.40;93.50;;;;;;5016969;28;20104;-63
2022/06/29 05:05:05;;;;;;;0.00;0.00;;;21.50;93.70;;;;;;5028399;28;20052;-63
2022/06/29 05:07:31;;;;;;;0.00;0.00;;;21.50;93.50;;;;;;5032816;28;20033;-63
2022/06/29 05:09:56;;;;;;;23.20;3.22;;;21.70;93.10;;;;;;5032509;28;20032;-63
2022/06/29 05:12:22;;;;;;;0.73;0.22;;;21.70;93.00;;;;;;5032520;28;20107;-63
2022/06/29 05:14:48;;;;;;;0.45;0.45;;;21.80;93.10;;;;;;5027871;28;20410;-63
2022/06/29 05:17:13;;;;;;;0.00;0.00;;;21.60;93.80;;;;;;5027964;28;20084;-62
2022/06/29 05:19:39;;;;;;;0.32;0.30;;;21.60;93.90;;;;;;5012730;28;20033;-65
2022/06/29 05:22:05;;;;;;;0.10;0.10;;;21.80;94.00;;;;;;5012766;28;20041;-66
2022/06/29 05:24:31;;;;;;;0.00;0.00;;;22.10;93.10;;;;;;5012173;28;20030;-64
2022/06/29 05:26:57;;;;;;;0.03;0.03;;;22.20;92.80;;;;;;5011755;28;20040;-65
2022/06/29 05:29:25;;;;;;;0.30;0.30;;;22.10;93.20;;;;;;5009384;28;20117;-66
2022/06/29 05:31:52;;;;;;;0.30;0.10;;;22.10;93.00;;;;;;5011592;28;20486;-66
2022/06/29 05:34:18;;;;;;;0.30;0.30;;;22.20;92.90;;;;;;5009641;28;20088;-66
2022/06/29 05:36:44;;;;;;;0.05;0.00;;;22.10;93.00;;;;;;5010301;28;20134;-66
2022/06/29 05:39:10;;;;;;;21.17;1.85;;;22.20;93.10;;;;;;5011369;28;20532;-66
2022/06/29 05:41:36;;;;;;;0.22;0.15;;;22.20;92.90;;;;;;5011025;28;20036;-66
2022/06/29 05:44:04;;;;;;;0.43;0.30;;;22.20;93.00;;;;;;5012063;28;20026;-66
2022/06/29 05:46:31;;;;;;;0.00;0.00;;;22.00;93.00;;;;;;5011234;28;20497;-65
2022/06/29 05:48:57;;;;;;;0.20;0.20;;;22.10;93.20;;;;;;5012277;28;20038;-66
2022/06/29 05:51:22;;;;;;;0.45;0.45;;;22.20;93.10;;;;;;5012035;28;20439;-66
2022/06/29 05:53:49;;;;;;;0.00;0.00;;;22.20;92.90;;;;;;5010956;28;20037;-65
2022/06/29 05:56:15;;;;;;;0.00;0.00;;;22.20;93.00;;;;;;5011940;28;20026;-65
2022/06/29 05:58:41;;;;;;;0.20;0.20;;;22.20;93.10;;;;;;5012076;28;20459;-65
2022/06/29 06:01:09;;;;;;;0.00;0.00;;;22.40;92.60;;;;;;5011612;28;20045;-65
2022/06/29 06:03:36;;;;;;;0.35;0.35;;;22.50;93.00;;;;;;5010859;28;20030;-66
2022/06/29 06:06:03;;;;;;;0.17;0.17;;;22.60;92.40;;;;;;5012218;28;20366;-65
2022/06/29 06:08:28;;;;;;;0.05;0.05;;;22.60;92.20;;;;;;5011625;28;20445;-66
2022/06/29 06:10:54;;;;;;;0.32;0.32;;;22.60;92.40;;;;;;5010620;28;20037;-65
2022/06/29 06:13:20;;;;;;;1.15;1.05;;;22.50;92.70;;;;;;5009721;28;20025;-66
2022/06/29 06:15:47;;;;;;;0.20;0.20;;;22.30;93.10;;;;;;5010634;28;20053;-66
2022/06/29 06:18:14;;;;;;;1.15;0.80;;;22.20;93.50;;;;;;5004600;28;20425;-66
2022/06/29 06:20:40;;;;;;;32.30;1.42;;;21.80;93.80;;;;;;5010816;28;20029;-66
2022/06/29 06:23:06;;;;;;;0.40;0.35;;;21.70;94.40;;;;;;5011249;28;20065;-66
2022/06/29 06:25:32;;;;;;;5.75;4.20;;;21.70;94.50;;;;;;5011336;28;20022;-65
2022/06/29 06:27:58;;;;;;;0.43;0.43;;;21.70;95.10;;;;;;5011402;28;20105;-65
2022/06/29 06:30:24;;;;;;;0.40;0.40;;;21.80;95.00;;;;;;5010428;28;20164;-66
2022/06/29 06:32:50;;;;;;;1.35;1.10;;;22.00;94.90;;;;;;5011592;28;20030;-72
2022/06/29 06:35:16;;;;;;;1.48;0.32;;;21.70;95.50;;;;;;5010238;28;20049;-73
2022/06/29 06:37:43;;;;;;;0.10;0.10;;;21.70;95.30;;;;;;5011266;28;20143;-75
2022/06/29 06:42:54;;;;;;;0.08;0.08;;;21.70;96.00;;;;;;5009915;28;20088;-74
2022/06/29 06:45:20;;;;;;;0.00;0.00;;;21.80;95.70;;;;;;5011708;28;20568;-75
2022/06/29 06:47:45;;;;;;;0.20;0.17;;;21.70;96.00;;;;;;5009756;28;20394;-74
2022/06/29 06:50:11;;;;;;;0.35;0.17;;;21.70;96.10;;;;;;5009436;28;20033;-75
2022/06/29 06:52:37;;;;;;;0.40;0.40;;;21.70;96.50;;;;;;5003135;28;20029;-76
2022/06/29 06:55:03;;;;;;;0.10;0.10;;;21.80;96.40;;;;;;5009772;28;20113;-74
2022/06/29 06:57:29;;;;;;;0.22;0.22;;;21.70;96.60;;;;;;5011096;28;20034;-75
2022/06/29 06:59:54;;;;;;;0.00;0.00;;;21.50;97.20;;;;;;5011419;28;20120;-78
2022/06/29 07:02:21;;;;;;;0.25;0.05;;;21.50;96.80;;;;;;5011074;28;20645;-75
2022/06/29 07:04:47;;;;;;;1.27;0.63;;;21.30;97.10;;;;;;5007840;28;20448;-74
2022/06/29 07:07:14;;;;;;;0.00;0.00;;;21.30;97.50;;;;;;5007222;28;20033;-75
2022/06/29 07:09:40;;;;;;;2.28;0.45;;;21.50;97.40;;;;;;5002959;28;20125;-75
2022/06/29 07:12:06;;;;;;;0.00;0.00;;;21.50;97.40;;;;;;5007786;28;20096;-75
2022/06/29 07:14:32;;;;;;;0.10;0.10;;;21.60;96.70;;;;;;5009852;28;20438;-75
2022/06/29 07:16:58;;;;;;;0.10;0.10;;;21.80;96.80;;;;;;5010702;28;20066;-76
2022/06/29 07:19:24;;;;;;;0.40;0.40;;;21.80;96.80;;;;;;5011038;28;20026;-75
2022/06/29 07:21:50;;;;;;;0.00;0.00;;;21.90;96.50;;;;;;5010904;28;20072;-73
2022/06/29 07:24:16;;;;;;;0.57;0.38;;;21.80;96.10;;;;;;5010557;28;20050;-74
2022/06/29 07:26:41;;;;;;;0.00;0.00;;;21.90;95.90;;;;;;4993401;28;20481;-74
2022/06/29 07:29:07;;;;;;;0.10;0.08;;;21.90;95.70;;;;;;5012934;28;20121;-73
2022/06/29 07:31:33;;;;;;;1.25;0.82;;;22.00;94.50;;;;;;5036882;28;20101;-73
2022/06/29 07:33:59;;;;;;;0.00;0.00;;;22.10;94.70;;;;;;5023434;28;20121;-73
2022/06/29 07:36:29;;;;;;;0.00;0.00;;;22.20;94.40;;;;;;5024255;28;20400;-73
2022/06/29 07:38:55;;;;;;;0.00;0.00;;;22.40;94.00;;;;;;5025203;28;20046;-73
2022/06/29 07:41:20;;;;;;;0.00;0.00;;;22.50;94.10;;;;;;5020230;28;20040;-73
2022/06/29 07:43:46;;;;;;;2.28;0.32;;;22.60;93.70;;;;;;5012299;28;20108;-73
2022/06/29 07:46:12;;;;;;;0.10;0.10;;;22.70;93.20;;;;;;5014041;28;20044;-72
2022/06/29 07:48:38;;;;;;;0.00;0.00;;;22.80;93.30;;;;;;5013685;28;20070;-73
2022/06/29 07:51:04;;;;;;;0.00;0.00;;;22.90;92.80;;;;;;5011292;28;20045;-73
2022/06/29 07:53:31;;;;;;;1.05;0.90;;;23.00;92.30;;;;;;5011458;28;20034;-73
2022/06/29 07:55:57;;;;;;;0.10;0.10;;;23.00;92.50;;;;;;5014019;28;20034;-73
2022/06/29 07:58:22;;;;;;;1.20;1.00;;;23.00;92.70;;;;;;5008042;28;20033;-73
2022/06/29 08:00:49;;;;;;;0.30;0.10;;;23.10;92.90;;;;;;5014806;28;20038;-73
2022/06/29 08:03:14;;;;;;;0.00;0.00;;;23.20;92.30;;;;;;5012494;28;20062;-74
2022/06/29 08:05:40;;;;;;;0.10;0.10;;;23.20;92.20;;;;;;5013685;28;20064;-74
2022/06/29 08:08:07;;;;;;;0.98;0.60;;;23.20;92.50;;;;;;5012584;28;20022;-74
2022/06/29 08:10:33;;;;;;;0.17;0.17;;;23.30;92.70;;;;;;5009798;28;20026;-74
2022/06/29 08:13:00;;;;;;;0.00;0.00;;;23.30;92.50;;;;;;5011743;28;20021;-74
2022/06/29 08:15:28;;;;;;;0.47;0.20;;;23.40;92.60;;;;;;5012715;28;20543;-74
2022/06/29 08:17:54;;;;;;;0.63;0.30;;;23.40;93.10;;;;;;5011576;28;20413;-74
2022/06/29 08:20:20;;;;;;;0.45;0.45;;;23.20;92.90;;;;;;5013885;28;20034;-74
2022/06/29 08:22:47;;;;;;;0.70;0.28;;;23.50;93.00;;;;;;5011729;28;20030;-74
2022/06/29 08:25:13;;;;;;;0.00;0.00;;;23.60;93.00;;;;;;5012615;28;20028;-75
2022/06/29 08:27:40;;;;;;;0.00;0.00;;;23.50;92.60;;;;;;5010435;28;20377;-74
2022/06/29 08:30:09;;;;;;;0.00;0.00;;;23.80;92.80;;;;;;5012166;28;20066;-74
2022/06/29 08:32:34;;;;;;;1.45;1.02;;;23.80;92.20;;;;;;5011545;28;20041;-74
2022/06/29 08:35:01;;;;;;;0.10;0.10;;;23.90;92.30;;;;;;5011844;28;20390;-73
2022/06/29 08:37:28;;;;;;;0.13;0.13;;;24.10;92.20;;;;;;5011882;28;20052;-74
2022/06/29 08:39:54;;;;;;;0.50;0.50;;;24.30;92.10;;;;;;5012201;28;20033;-74
2022/06/29 08:42:24;;;;;;;2.30;0.43;;;24.30;91.70;;;;;;5011313;28;20057;-74
2022/06/29 08:44:51;;;;;;;0.00;0.00;;;24.00;92.70;;;;;;5012353;28;20036;-74
2022/06/29 08:47:17;;;;;;;0.20;0.17;;;24.40;92.70;;;;;;5011033;28;20052;-74
2022/06/29 08:49:44;;;;;;;1.00;0.68;;;24.50;92.50;;;;;;5011187;28;20136;-74
2022/06/29 08:52:11;;;;;;;0.30;0.30;;;24.60;92.10;;;;;;5017689;28;20113;-74
2022/06/29 08:54:43;;;;;;;0.05;0.05;;;24.60;92.00;;;;;;5028376;28;20417;-74
2022/06/29 08:57:09;;;;;;;0.10;0.10;;;24.80;92.00;;;;;;5013244;28;20038;-74
2022/06/29 08:59:35;;;;;;;0.85;0.68;;;24.90;92.40;;;;;;5011329;28;20401;-74
2022/06/29 09:02:02;;;;;;;3.45;0.55;;;25.00;92.30;;;;;;5010434;28;20113;-74
2022/06/29 09:04:28;;;;;;;0.45;0.43;;;24.90;92.40;;;;;;5011474;28;20041;-73
2022/06/29 09:06:56;;;;;;;0.10;0.10;;;24.90;92.60;;;;;;5011597;28;20088;-74
2022/06/29 09:09:23;;;;;;;0.10;0.10;;;25.00;92.20;;;;;;5010000;28;20189;-74
2022/06/29 09:11:53;;;;;;;7.55;0.70;;;25.10;92.40;;;;;;5006825;28;20359;-74
2022/06/29 09:14:22;;;;;;;0.50;0.50;;;25.10;92.20;;;;;;5014645;28;20091;-74
2022/06/29 09:17:02;;;;;;;0.35;0.30;;;24.60;92.80;;;;;;5012176;28;20513;-74
2022/06/29 09:19:37;;;;;;;0.77;0.70;;;24.50;93.20;;;;;;5011735;28;20038;-74
2022/06/29 09:22:03;;;;;;;0.73;0.73;;;24.80;93.20;;;;;;5009918;28;20113;-74
2022/06/29 09:24:34;;;;;;;0.38;0.38;;;24.90;93.00;;;;;;5018279;28;20111;-74
2022/06/29 09:27:04;;;;;;;0.10;0.10;;;24.90;93.50;;;;;;5031135;28;20053;-75
2022/06/29 09:29:36;;;;;;;0.30;0.30;;;25.10;93.10;;;;;;5017252;28;20030;-74
2022/06/29 09:32:04;;;;;;;0.38;0.20;;;25.30;93.00;;;;;;5021514;28;20048;-74
2022/06/29 09:34:39;;;;;;;0.95;0.45;;;25.50;92.80;;;;;;5016963;28;20065;-73
2022/06/29 09:37:12;;;;;;;0.20;0.20;;;25.60;92.80;;;;;;5002545;28;20044;-71
2022/06/29 09:39:52;;;;;;;0.95;0.85;;;25.50;92.80;;;;;;5019956;28;20018;-73
2022/06/29 09:42:21;;;;;;;1.30;0.63;;;25.70;92.70;;;;;;5008674;28;20038;-74
2022/06/29 09:44:48;;;;;;;5.65;1.42;;;25.70;92.60;;;;;;5011025;28;20040;-74
2022/06/29 09:47:20;;;;;;;1.30;0.57;;;25.90;92.30;;;;;;5010457;28;20071;-74
2022/06/29 09:49:54;;;;;;;0.60;0.55;;;26.10;92.10;;;;;;5020245;28;20105;-73
2022/06/29 09:52:20;;;;;;;0.30;0.30;;;26.20;91.90;;;;;;5007859;28;20033;-74
2022/06/29 09:54:58;;;;;;;4.85;1.63;;;26.20;92.00;;;;;;5014664;28;20056;-74
2022/06/29 09:57:30;;;;;;;0.73;0.45;;;26.10;92.20;;;;;;5012718;28;20030;-72
2022/06/29 10:02:54;;;;;;;1.08;0.95;;;26.60;91.50;;;;;;5016636;28;20028;-72
2022/06/29 10:05:28;;;;;;;0.35;0.32;;;26.80;91.30;;;;;;5017548;28;20116;-71
2022/06/29 10:07:55;;;;;;;0.17;0.17;;;26.50;91.40;;;;;;5015852;28;20064;-72
2022/06/29 10:10:24;;;;;;;0.35;0.35;;;26.60;91.30;;;;;;5019525;28;20397;-73
2022/06/29 10:16:19;;;;;;;0.88;0.47;;;26.80;90.60;;;;;;5020111;28;20044;-73
2022/06/29 10:19:30;;;;;;;0.65;0.43;;;27.00;90.50;;;;;;5016320;28;20526;-74
2022/06/29 10:21:56;;;;;;;0.00;0.00;;;27.20;90.70;;;;;;5016897;28;20037;-73
2022/06/29 10:24:25;;;;;;;0.00;0.00;;;27.30;90.30;;;;;;5017724;28;20508;-72
2022/06/29 10:26:51;;;;;;;0.65;0.45;;;26.70;89.80;;;;;;5017827;28;20025;-72
2022/06/29 10:29:19;;;;;;;0.85;0.77;;;26.80;90.60;;;;;;5016655;28;20026;-74
2022/06/29 10:31:51;;;;;;;0.85;0.85;;;26.90;90.40;;;;;;5015645;28;20172;-72
2022/06/29 10:34:31;;;;;;;1.10;0.68;;;27.20;90.50;;;;;;5016041;28;20498;-73
2022/06/29 10:37:03;;;;;;;0.10;0.10;;;27.30;90.50;;;;;;5017976;28;20137;-75
2022/06/29 10:39:48;;;;;;;0.00;0.00;;;27.50;89.30;;;;;;5013637;28;20153;-74
2022/06/29 10:45:34;;;;;;;0.13;0.13;;;27.00;90.50;;;;;;5018001;28;20080;-75
2022/06/29 10:48:01;;;;;;;1.38;1.17;;;27.10;90.70;;;;;;5007153;28;20659;-74
2022/06/29 10:50:31;;;;;;;0.50;0.50;;;27.40;90.40;;;;;;5011786;28;20386;-75
2022/06/29 10:53:04;;;;;;;0.50;0.50;;;27.60;89.70;;;;;;5009321;28;20034;-73
2022/06/29 10:55:33;;;;;;;0.10;0.10;;;28.00;89.60;;;;;;5011260;28;20544;-73
2022/06/29 10:58:00;;;;;;;0.28;0.25;;;27.50;90.40;;;;;;5010192;28;20088;-73
2022/06/29 11:00:42;;;;;;;0.45;0.35;;;28.10;89.90;;;;;;5011110;28;20030;-74
2022/06/29 11:03:17;;;;;;;0.30;0.17;;;28.20;90.20;;;;;;5007002;28;20034;-74
2022/06/29 11:15:39;;;;;;;4.72;1.02;;;28.60;90.00;;;;;;5006745;28;20038;-74
2022/06/29 11:16:55;;;;;;;0.30;0.30;;;28.40;88.00;;;;;;4999479;28;20076;-75
2022/06/29 11:19:32;;;;;;;2.20;1.30;;;29.00;86.80;;;;;;5009694;28;20177;-73
2022/06/29 11:22:18;;;;;;;0.30;0.28;;;29.20;87.20;;;;;;5007904;28;20030;-73
2022/06/29 11:25:00;;;;;;;0.25;0.25;;;29.20;86.30;;;;;;5000196;28;20051;-73
2022/06/29 11:27:39;;;;;;;0.57;0.57;;;29.30;86.30;;;;;;5010119;28;20030;-73
2022/06/29 11:30:12;;;;;;;0.32;0.22;;;29.30;86.00;;;;;;5002672;28;20042;-74
2022/06/29 11:32:44;;;;;;;0.30;0.30;;;29.30;85.60;;;;;;5008684;28;20045;-74
2022/06/29 11:35:13;;;;;;;0.10;0.10;;;28.50;86.20;;;;;;5010871;28;20081;-74
2022/06/29 11:38:07;;;;;;;0.20;0.20;;;28.70;87.20;;;;;;5009996;28;20034;-74
2022/06/29 11:40:40;;;;;;;1.08;0.50;;;28.60;85.90;;;;;;5015400;28;20540;-73
2022/06/29 11:43:15;;;;;;;0.60;0.30;;;29.30;86.50;;;;;;5006434;28;20072;-74
2022/06/29 11:45:47;;;;;;;1.55;0.85;;;29.00;86.80;;;;;;5010528;28;20034;-74
2022/06/29 11:48:19;;;;;;;0.55;0.25;;;29.20;85.30;;;;;;5009615;28;20065;-74
2022/06/29 11:50:49;;;;;;;0.75;0.47;;;29.50;85.30;;;;;;5017330;28;20030;-74
2022/06/29 11:53:54;;;;;;;0.10;0.10;;;29.60;83.40;;;;;;5014001;28;20037;-74
2022/06/29 11:56:23;;;;;;;13.25;0.57;;;29.70;83.70;;;;;;5001841;28;20038;-73
2022/06/29 11:58:55;;;;;;;0.13;0.13;;;29.60;83.50;;;;;;5008824;28;20045;-74
2022/06/29 12:01:25;;;;;;;0.82;0.73;;;29.20;83.90;;;;;;5006273;28;20033;-73
2022/06/29 12:03:54;;;;;;;0.82;0.43;;;29.20;83.40;;;;;;5008714;28;20026;-73
2022/06/29 12:06:23;;;;;;;0.40;0.40;;;29.10;83.10;;;;;;5008233;28;20038;-73
2022/06/29 12:08:50;;;;;;;0.10;0.10;;;29.20;83.80;;;;;;5010023;28;20037;-73
2022/06/29 12:11:17;;;;;;;0.93;0.47;;;29.10;84.10;;;;;;5010192;28;20033;-74
2022/06/29 12:13:43;;;;;;;0.93;0.73;;;29.60;82.90;;;;;;5010135;28;20076;-74
2022/06/29 12:16:18;;;;;;;0.52;0.45;;;29.30;81.90;;;;;;5012949;28;20045;-75
2022/06/29 12:18:44;;;;;;;1.30;1.13;;;29.10;82.40;;;;;;5016624;28;20022;-74
2022/06/29 12:21:10;;;;;;;1.65;0.25;;;28.90;82.80;;;;;;5012286;28;20036;-74
2022/06/29 12:23:36;;;;;;;0.70;0.45;;;29.10;84.30;;;;;;5013728;28;20038;-73
2022/06/29 12:26:02;;;;;;;0.57;0.52;;;29.50;83.30;;;;;;5013387;28;20029;-74
2022/06/29 12:28:28;;;;;;;0.25;0.25;;;29.70;82.30;;;;;;5012729;28;20030;-73
2022/06/29 12:30:54;;;;;;;0.32;0.32;;;29.40;82.30;;;;;;4994929;28;20504;-72
2022/06/29 12:33:21;;;;;;;0.10;0.10;;;29.50;81.80;;;;;;5011602;28;20079;-74
2022/06/29 12:35:48;;;;;;;0.45;0.38;;;29.50;82.20;;;;;;5013677;28;20116;-74
2022/06/29 12:38:14;;;;;;;0.10;0.10;;;29.20;81.10;;;;;;5028055;28;20092;-73
2022/06/29 12:40:42;;;;;;;6.75;2.67;;;28.60;83.20;;;;;;5011318;28;20034;-72
2022/06/29 12:43:08;;;;;;;0.47;0.30;;;29.30;82.40;;;;;;5013014;28;20034;-73
2022/06/29 12:45:34;;;;;;;0.85;0.80;;;29.00;82.30;;;;;;5022987;28;20030;-73
2022/06/29 12:48:01;;;;;;;1.25;0.85;;;29.50;82.30;;;;;;5014201;28;20029;-73
2022/06/29 12:50:27;;;;;;;0.20;0.20;;;29.80;81.80;;;;;;5012813;28;20056;-74
2022/06/29 12:52:53;;;;;;;0.30;0.22;;;30.50;81.60;;;;;;5010238;28;20025;-73
2022/06/29 12:55:21;;;;;;;0.47;0.30;;;30.20;80.20;;;;;;5006003;28;20060;-74
2022/06/29 12:57:47;;;;;;;0.70;0.40;;;30.30;81.70;;;;;;5007859;28;20080;-74
2022/06/29 13:00:16;;;;;;;0.47;0.22;;;30.50;80.50;;;;;;5013129;28;20480;-74
2022/06/29 13:02:43;;;;;;;0.30;0.17;;;30.60;80.50;;;;;;5012420;28;20029;-75
2022/06/29 13:05:09;;;;;;;9.95;0.45;;;30.40;79.50;;;;;;5013446;28;20120;-74
2022/06/29 13:07:37;;;;;;;0.75;0.43;;;30.70;81.20;;;;;;5009387;28;20062;-72
2022/06/29 13:10:07;;;;;;;0.00;0.00;;;31.20;80.80;;;;;;5007830;28;20029;-73
2022/06/29 13:12:33;;;;;;;;;;;31.10;78.40;;;;;;5010819;28;20397;-74
2022/06/29 13:14:59;;;;;;;0.32;0.32;;;31.10;78.90;;;;;;5013030;28;19916;-74
2022/06/29 13:17:25;;;;;;;2.10;1.30;;;31.20;78.90;;;;;;5012316;28;20050;-74
2022/06/29 13:19:50;;;;;;;0.10;0.10;;;30.50;78.50;;;;;;5013019;28;20022;-75